Frankfurt, Germany

5:12 PM CEST on September 03, 2015 (GMT +0200)
Wiesbaden Army Air Field | | Change Station
CLOSE
Current Station
Airport
Location: Wiesbaden,
Elevation: 459 ft
Nearby Weather Stations

Elev 459 ft 50.05 °N, 8.33 °E | Updated 14 minutes ago

Scattered Clouds
Scattered Clouds
69 °F
Feels Like 69 °F
N
7
Wind Variable Wind from West

Today
High -- | Low -- °F
--% Chance of Precip.
Yesterday
High -- | Low -- °F
Precip. -- in
6:42 AM 8:06 PM
Waning Gibbous, 69% visible
Pressure 29.92 in
Visibility 6.2 miles
Clouds Scattered Clouds 9500 ft
Dew Point 46 °F
Humidity 43%
Rainfall 0.00 in
Snow Depth Not available.
UV 2 out of 12
Pollen Not available.
Air Quality Not available.
Flu Activity Not available.
METAR ETOU 031458Z AUTO 28006KT 9999 SCT095 21/08 A2992 RMK AO2 SLP131 60000 T02050076 58008 $
Pressure 29.92 in
Visibility 6.2 miles
Clouds Scattered Clouds 9500 ft
Dew Point 46 °F
Humidity 43%
Rainfall 0.00 in
Snow Depth Not available.
UV 2 out of 12
Pollen Not available.
Air Quality Not available.
Flu Activity Not available.
METAR ETOU 031458Z AUTO 28006KT 9999 SCT095 21/08 A2992 RMK AO2 SLP131 60000 T02050076 58008 $

10-Day Weather Forecast

×

Almanac

Astronomy

Sep. 03, 2015 Rise Set
Actual Time
Civil Twilight
Nautical Twilight
Astronomical Twilight
Moon
Length of Visible Light
Length of Day
Tomorrow will be .
, % of the Moon is Illuminated

Today's Extremes

Country Highs Country Lows

Community

WunderPhotos

Upload Photos

1,851,972 photos uploaded!

WunderBlogs® & News

Nearby

Air Quality

  Air Quality AQ Index Pollutant
Not available.

Snow Depth

Station Depth Elevation

Earthquake Activity

City Distance Mag. Time & Date
Minimum magnitude displayed is 2.5.

Coastal Water Temperatures

Place Temperature

Stations

Nearby Weather Stations

Station Location Temp. Windchill Dew Point Humidity Wind Precip. Elev Updated Type